createdAt,value
2023-04-01T00:01:29.880Z,8.80
2023-04-01T00:03:57.268Z,8.80
2023-04-01T00:06:24.548Z,8.80
2023-04-01T00:08:51.732Z,8.80
2023-04-01T00:11:20.525Z,8.70
2023-04-01T00:13:48.401Z,8.80
2023-04-01T00:18:48.140Z,8.60
2023-04-01T00:21:15.680Z,8.70
2023-04-01T00:23:42.775Z,8.70
2023-04-01T00:26:09.720Z,8.70
2023-04-01T00:28:38.132Z,8.60
2023-04-01T00:31:07.327Z,8.70
2023-04-01T00:33:34.429Z,8.60
2023-04-01T00:36:12.675Z,8.60
2023-04-01T00:38:40.097Z,8.60
2023-04-01T00:41:07.514Z,8.60
2023-04-01T00:43:35.485Z,8.60
2023-04-01T00:46:02.365Z,8.60
2023-04-01T00:48:34.064Z,8.60
2023-04-01T00:51:06.401Z,8.60
2023-04-01T00:53:35.376Z,8.60
2023-04-01T00:56:26.133Z,8.60
2023-04-01T00:58:58.974Z,8.60
2023-04-01T01:01:26.854Z,8.50
2023-04-01T01:03:53.800Z,8.50
2023-04-01T01:06:24.110Z,8.50
2023-04-01T01:09:14.133Z,8.50
2023-04-01T01:14:39.469Z,8.50
2023-04-01T01:17:35.159Z,8.50
2023-04-01T01:20:32.821Z,8.50
2023-04-01T01:23:41.498Z,8.50
2023-04-01T01:26:52.200Z,8.50
2023-04-01T01:29:54.328Z,8.40
2023-04-01T01:32:27.077Z,8.40
2023-04-01T01:34:58.387Z,8.40
2023-04-01T01:37:28.374Z,8.40
2023-04-01T01:40:06.385Z,8.40
2023-04-01T01:42:38.381Z,8.40
2023-04-01T01:45:07.662Z,8.40
2023-04-01T01:47:36.750Z,8.40
2023-04-01T01:50:06.402Z,8.40
2023-04-01T01:52:33.281Z,8.30
2023-04-01T01:55:00.127Z,8.40
2023-04-01T01:57:38.873Z,8.40
2023-04-01T02:00:15.543Z,8.30
2023-04-01T02:02:47.636Z,8.30
2023-04-01T02:05:21.838Z,8.30
2023-04-01T02:07:58.277Z,8.30
2023-04-01T02:10:27.655Z,8.30
2023-04-01T02:13:00.438Z,8.30
2023-04-01T02:15:32.522Z,8.30
2023-04-01T02:18:00.475Z,8.30
2023-04-01T02:20:29.582Z,8.30
2023-04-01T02:23:00.615Z,8.20
2023-04-01T02:25:36.095Z,8.30
2023-04-01T02:28:05.899Z,8.30
2023-04-01T02:30:37.484Z,8.20
2023-04-01T02:33:06.294Z,8.20
2023-04-01T02:35:37.008Z,8.30
2023-04-01T02:38:04.725Z,8.30
2023-04-01T02:40:46.442Z,8.30
2023-04-01T02:43:13.500Z,8.20
2023-04-01T02:45:40.580Z,8.20
2023-04-01T02:48:07.977Z,8.20
2023-04-01T02:50:35.525Z,8.20
2023-04-01T02:53:04.779Z,8.20
2023-04-01T02:55:32.331Z,8.30
2023-04-01T02:57:59.899Z,8.20
2023-04-01T03:00:28.166Z,8.20
2023-04-01T03:02:55.707Z,8.20
2023-04-01T03:05:22.858Z,8.20
2023-04-01T03:07:49.884Z,8.20
2023-04-01T03:10:16.985Z,8.20
2023-04-01T03:12:44.086Z,8.20
2023-04-01T03:15:12.883Z,8.20
2023-04-01T03:17:40.988Z,8.20
2023-04-01T03:20:09.371Z,8.20
2023-04-01T03:22:36.605Z,8.20
2023-04-01T03:25:06.414Z,8.20
2023-04-01T03:27:33.225Z,8.20
2023-04-01T03:30:00.307Z,8.00
2023-04-01T03:32:28.305Z,8.10
2023-04-01T03:34:55.228Z,8.10
2023-04-01T03:37:22.060Z,8.10
2023-04-01T03:39:49.698Z,8.10
2023-04-01T03:42:16.545Z,8.10
2023-04-01T03:44:43.356Z,8.10
2023-04-01T03:47:11.576Z,8.10
2023-04-01T03:49:38.443Z,8.10
2023-04-01T03:52:05.484Z,8.10
2023-04-01T03:54:33.021Z,8.10
2023-04-01T03:56:59.883Z,8.10
2023-04-01T03:59:27.035Z,8.10
2023-04-01T04:01:53.948Z,8.10
2023-04-01T04:04:20.948Z,8.00
2023-04-01T04:06:48.923Z,8.10
2023-04-01T04:09:16.818Z,8.00
2023-04-01T04:11:43.672Z,8.00
2023-04-01T04:14:10.600Z,8.00
2023-04-01T04:16:37.966Z,8.00
2023-04-01T04:19:05.832Z,8.00
2023-04-01T04:21:33.118Z,8.00
2023-04-01T04:24:01.426Z,8.00
2023-04-01T04:26:33.856Z,8.00
2023-04-01T04:29:02.129Z,7.90
2023-04-01T04:31:29.034Z,7.90
2023-04-01T04:34:00.304Z,8.00
2023-04-01T04:36:27.660Z,7.90
2023-04-01T04:38:55.038Z,7.90
2023-04-01T04:41:22.999Z,7.90
2023-04-01T04:43:56.255Z,8.00
2023-04-01T04:46:24.604Z,7.90
2023-04-01T04:48:58.100Z,7.90
2023-04-01T04:51:25.370Z,7.80
2023-04-01T04:53:53.105Z,7.90
2023-04-01T04:56:26.277Z,7.90
2023-04-01T04:59:08.277Z,7.80
2023-04-01T05:01:47.751Z,7.80
2023-04-01T05:04:14.803Z,7.90
2023-04-01T05:06:43.231Z,7.80
2023-04-01T05:09:10.104Z,7.80
2023-04-01T05:11:37.004Z,7.90
2023-04-01T05:14:03.931Z,7.90
2023-04-01T05:16:32.592Z,7.90
2023-04-01T05:19:00.288Z,7.80
2023-04-01T05:21:27.119Z,7.90
2023-04-01T05:23:55.252Z,7.80
2023-04-01T05:26:24.063Z,7.80
2023-04-01T05:28:50.889Z,7.90
2023-04-01T05:31:18.171Z,7.90
2023-04-01T05:33:48.077Z,7.90
2023-04-01T05:36:16.865Z,7.90
2023-04-01T05:38:46.584Z,7.80
2023-04-01T05:41:14.829Z,7.90
2023-04-01T05:43:45.083Z,7.90
2023-04-01T05:46:44.758Z,7.90
2023-04-01T05:49:29.541Z,7.90
2023-04-01T05:51:57.110Z,8.00
2023-04-01T05:54:24.365Z,8.00
2023-04-01T05:56:51.453Z,8.00
2023-04-01T05:59:20.337Z,8.10
2023-04-01T06:01:47.339Z,8.10
2023-04-01T06:04:17.007Z,8.10
2023-04-01T06:06:44.988Z,8.20
2023-04-01T06:09:17.560Z,8.10
2023-04-01T06:12:09.300Z,8.20
2023-04-01T06:14:59.564Z,8.10
2023-04-01T06:18:04.147Z,8.20
2023-04-01T06:20:41.123Z,8.10
2023-04-01T06:23:18.439Z,8.20
2023-04-01T06:25:59.454Z,8.20
2023-04-01T06:28:52.524Z,8.20
2023-04-01T06:31:38.058Z,8.20
2023-04-01T06:34:31.496Z,8.20
2023-04-01T06:37:27.115Z,8.20
2023-04-01T06:40:04.225Z,8.20
2023-04-01T06:42:46.976Z,8.20
2023-04-01T06:45:59.196Z,8.20
2023-04-01T06:48:56.225Z,8.20
2023-04-01T06:52:01.470Z,8.20
2023-04-01T06:55:22.890Z,8.20
2023-04-01T06:58:26.460Z,8.20
2023-04-01T07:00:58.927Z,8.20
2023-04-01T07:03:44.189Z,8.20
2023-04-01T07:06:24.709Z,8.20
2023-04-01T07:08:57.201Z,8.30
2023-04-01T07:11:32.809Z,8.30
2023-04-01T07:14:38.435Z,8.30
2023-04-01T07:17:07.723Z,8.30
2023-04-01T07:19:46.624Z,8.30
2023-04-01T07:22:32.424Z,8.30
2023-04-01T07:25:21.115Z,8.30
2023-04-01T07:28:12.295Z,8.30
2023-04-01T07:30:48.979Z,8.30
2023-04-01T07:33:42.426Z,8.40
2023-04-01T07:36:31.781Z,8.40
2023-04-01T07:39:10.425Z,8.40
2023-04-01T07:42:03.011Z,8.40
2023-04-01T07:44:49.089Z,8.40
2023-04-01T07:47:35.934Z,8.50
2023-04-01T07:50:33.786Z,8.50
2023-04-01T07:53:25.650Z,8.50
2023-04-01T07:56:37.586Z,8.50
2023-04-01T07:59:53.029Z,8.60
2023-04-01T08:02:56.128Z,8.60
2023-04-01T08:05:32.006Z,8.60
2023-04-01T08:08:16.535Z,8.70
2023-04-01T08:11:32.425Z,8.70
2023-04-01T08:14:27.387Z,8.70
2023-04-01T08:17:41.920Z,8.70
2023-04-01T08:20:34.734Z,8.70
2023-04-01T08:23:22.680Z,8.80
2023-04-01T08:26:16.703Z,8.80
2023-04-01T08:28:52.173Z,8.80
2023-04-01T08:31:44.111Z,8.80
2023-04-01T08:34:21.473Z,8.90
2023-04-01T08:36:55.232Z,8.90
2023-04-01T08:39:37.400Z,8.90
2023-04-01T08:42:04.156Z,8.90
2023-04-01T08:44:42.889Z,8.90
2023-04-01T08:47:16.020Z,8.90
2023-04-01T08:49:51.813Z,8.90
2023-04-01T08:53:04.655Z,8.90
2023-04-01T08:55:37.334Z,9.00
2023-04-01T08:58:24.758Z,9.00
2023-04-01T09:01:22.114Z,9.00
2023-04-01T09:04:03.160Z,9.00
2023-04-01T09:06:35.725Z,9.00
2023-04-01T09:09:12.851Z,9.00
2023-04-01T09:11:57.291Z,9.00
2023-04-01T09:14:30.345Z,9.00
2023-04-01T09:17:39.163Z,9.00
2023-04-01T09:20:34.393Z,9.00
2023-04-01T09:23:34.817Z,9.00
2023-04-01T09:26:13.605Z,9.00
2023-04-01T09:28:53.591Z,9.00
2023-04-01T09:31:55.001Z,9.10
2023-04-01T09:35:23.273Z,9.00
2023-04-01T09:38:09.658Z,9.10
2023-04-01T09:40:59.847Z,9.10
2023-04-01T09:44:09.938Z,9.10
2023-04-01T09:46:54.379Z,9.10
2023-04-01T09:49:33.486Z,9.10
2023-04-01T09:52:09.995Z,9.10
2023-04-01T09:54:57.037Z,9.10
2023-04-01T10:00:48.338Z,9.30
2023-04-01T10:03:40.209Z,9.30
2023-04-01T10:06:29.110Z,9.30
2023-04-01T10:09:19.570Z,9.30
2023-04-01T10:12:11.194Z,9.40
2023-04-01T10:15:00.643Z,9.40
2023-04-01T10:17:54.895Z,9.40
2023-04-01T10:20:27.773Z,9.50
2023-04-01T10:23:19.290Z,9.50
2023-04-01T10:25:55.741Z,9.50
2023-04-01T10:28:42.555Z,9.60
2023-04-01T10:31:51.746Z,9.50
2023-04-01T10:34:55.157Z,9.60
2023-04-01T10:37:25.584Z,9.60
2023-04-01T10:40:26.492Z,9.60
2023-04-01T10:43:25.966Z,9.60
2023-04-01T10:46:13.222Z,9.70
2023-04-01T10:49:19.708Z,9.80
2023-04-01T10:52:37.305Z,9.80
2023-04-01T10:55:25.103Z,9.80
2023-04-01T10:58:48.741Z,9.80
2023-04-01T11:02:10.719Z,9.80
2023-04-01T11:05:23.203Z,9.70
2023-04-01T11:08:28.776Z,9.70
2023-04-01T11:11:12.803Z,9.70
2023-04-01T11:14:18.935Z,9.70
2023-04-01T11:17:08.035Z,9.70
2023-04-01T11:20:13.208Z,9.70
2023-04-01T11:22:49.527Z,9.70
2023-04-01T11:25:32.176Z,9.70
2023-04-01T11:28:35.666Z,9.70
2023-04-01T11:31:25.101Z,9.70
2023-04-01T11:34:07.056Z,9.70
2023-04-01T11:36:40.014Z,9.70
2023-04-01T11:39:22.381Z,9.70
2023-04-01T11:42:35.382Z,9.70
2023-04-01T11:45:37.945Z,9.70
2023-04-01T11:48:29.837Z,9.80
2023-04-01T11:51:40.231Z,9.70
2023-04-01T11:54:25.796Z,9.80
2023-04-01T11:57:17.519Z,9.90
2023-04-01T12:00:13.396Z,9.90
2023-04-01T12:03:03.001Z,9.90
2023-04-01T12:05:48.193Z,9.90
2023-04-01T12:08:45.984Z,9.70
2023-04-01T12:11:42.826Z,10.00
2023-04-01T12:14:26.183Z,10.00
2023-04-01T12:17:10.617Z,10.00
2023-04-01T12:19:52.068Z,10.00
2023-04-01T12:22:50.283Z,10.10
2023-04-01T12:25:41.629Z,10.00
2023-04-01T12:28:30.006Z,10.00
2023-04-01T12:31:21.577Z,10.00
2023-04-01T12:34:24.749Z,10.00
2023-04-01T12:37:18.463Z,10.00
2023-04-01T12:40:09.955Z,10.00
2023-04-01T12:42:53.061Z,10.10
2023-04-01T12:45:37.208Z,10.10
2023-04-01T12:48:22.136Z,10.10
2023-04-01T12:51:22.264Z,10.10
2023-04-01T12:54:17.393Z,10.20
2023-04-01T12:57:02.245Z,10.20
2023-04-01T12:59:29.052Z,10.30
2023-04-01T13:02:16.992Z,10.40
2023-04-01T13:05:15.035Z,10.40
2023-04-01T13:07:57.383Z,10.40
2023-04-01T13:10:39.634Z,10.50
2023-04-01T13:13:25.287Z,10.50
2023-04-01T13:16:19.971Z,10.50
2023-04-01T13:19:22.008Z,10.60
2023-04-01T13:22:05.821Z,10.60
2023-04-01T13:24:50.804Z,10.60
2023-04-01T13:27:23.910Z,10.60
2023-04-01T13:30:24.955Z,10.60
2023-04-01T13:32:58.522Z,10.60
2023-04-01T13:35:44.400Z,10.50
2023-04-01T13:38:41.850Z,10.60
2023-04-01T13:41:38.730Z,10.60
2023-04-01T13:44:22.378Z,10.50
2023-04-01T13:47:04.986Z,10.50
2023-04-01T13:49:56.715Z,10.50
2023-04-01T13:52:27.543Z,10.50
2023-04-01T13:55:35.614Z,10.50
2023-04-01T13:58:44.815Z,10.40
2023-04-01T14:01:20.703Z,10.40
2023-04-01T14:04:23.140Z,10.40
2023-04-01T14:07:21.170Z,10.30
2023-04-01T14:09:50.931Z,10.20
2023-04-01T14:12:39.885Z,10.20
2023-04-01T14:15:23.333Z,10.20
2023-04-01T14:18:05.602Z,10.20
2023-04-01T14:20:52.864Z,10.20
2023-04-01T14:23:32.582Z,10.10
2023-04-01T14:26:31.155Z,10.20
2023-04-01T14:29:24.411Z,10.20
2023-04-01T14:32:16.189Z,10.20
2023-04-01T14:35:21.084Z,10.20
2023-04-01T14:38:18.486Z,10.30
2023-04-01T14:41:00.998Z,10.30
2023-04-01T14:43:51.145Z,10.30
2023-04-01T14:46:40.134Z,10.40
2023-04-01T14:49:35.340Z,10.50
2023-04-01T14:52:36.537Z,10.60
2023-04-01T14:55:12.300Z,10.60
2023-04-01T14:57:39.121Z,10.60
2023-04-01T15:00:08.679Z,10.60
2023-04-01T15:02:38.631Z,10.60
2023-04-01T15:05:27.020Z,10.50
2023-04-01T15:08:03.033Z,10.50
2023-04-01T15:10:51.923Z,10.50
2023-04-01T15:13:33.879Z,10.50
2023-04-01T15:16:35.342Z,10.50
2023-04-01T15:19:26.763Z,10.40
2023-04-01T15:21:59.501Z,10.40
2023-04-01T15:24:41.285Z,10.50
2023-04-01T15:27:32.269Z,10.50
2023-04-01T15:30:16.761Z,10.50
2023-04-01T15:33:01.486Z,10.50
2023-04-01T15:35:31.498Z,10.60
2023-04-01T15:38:03.604Z,10.60
2023-04-01T15:40:55.465Z,10.60
2023-04-01T15:43:44.898Z,10.60
2023-04-01T15:46:47.846Z,10.60
2023-04-01T15:49:29.702Z,10.60
2023-04-01T15:52:05.407Z,10.70
2023-04-01T15:54:56.179Z,10.60
2023-04-01T15:57:31.450Z,10.60
2023-04-01T16:00:27.317Z,10.60
2023-04-01T16:03:20.206Z,10.60
2023-04-01T16:06:12.843Z,10.60
2023-04-01T16:09:03.744Z,10.80
2023-04-01T16:11:33.570Z,10.60
2023-04-01T16:14:38.543Z,10.60
2023-04-01T16:17:25.609Z,10.60
2023-04-01T16:19:59.071Z,10.60
2023-04-01T16:22:38.345Z,10.50
2023-04-01T16:25:32.582Z,10.60
2023-04-01T16:28:17.445Z,10.50
2023-04-01T16:30:51.821Z,10.50
2023-04-01T16:33:47.214Z,10.50
2023-04-01T16:36:30.787Z,10.50
2023-04-01T16:39:18.850Z,10.50
2023-04-01T16:42:25.516Z,10.40
2023-04-01T16:45:23.730Z,10.50
2023-04-01T16:47:55.541Z,10.40
2023-04-01T16:50:40.551Z,10.40
2023-04-01T16:53:16.976Z,10.30
2023-04-01T16:55:49.984Z,10.40
2023-04-01T16:58:27.355Z,10.40
2023-04-01T17:01:07.078Z,10.40
2023-04-01T17:03:41.244Z,10.30
2023-04-01T17:06:26.358Z,10.30
2023-04-01T17:09:19.611Z,10.30
2023-04-01T17:11:57.792Z,10.30
2023-04-01T17:14:29.933Z,10.30
2023-04-01T17:17:03.347Z,10.20
2023-04-01T17:19:47.597Z,10.20
2023-04-01T17:22:41.676Z,10.20
2023-04-01T17:25:18.531Z,10.20
2023-04-01T17:28:00.834Z,10.20
2023-04-01T17:31:01.280Z,10.20
2023-04-01T17:33:55.520Z,10.10
2023-04-01T17:37:00.782Z,10.10
2023-04-01T17:39:58.277Z,10.10
2023-04-01T17:42:47.773Z,10.10
2023-04-01T17:45:49.063Z,10.00
2023-04-01T17:48:15.975Z,10.00
2023-04-01T17:51:02.092Z,10.00
2023-04-01T17:54:02.731Z,10.00
2023-04-01T17:56:51.219Z,10.00
2023-04-01T17:59:30.733Z,10.00
2023-04-01T18:02:31.559Z,9.90
2023-04-01T18:05:19.660Z,9.90
2023-04-01T18:08:11.321Z,9.90
2023-04-01T18:10:56.686Z,9.90
2023-04-01T18:13:56.849Z,9.90
2023-04-01T18:16:48.192Z,9.80
2023-04-01T18:19:39.621Z,9.80
2023-04-01T18:22:46.612Z,9.80
2023-04-01T18:25:38.135Z,9.80
2023-04-01T18:28:16.731Z,9.90
2023-04-01T18:30:50.945Z,9.70
2023-04-01T18:33:20.517Z,9.70
2023-04-01T18:36:14.103Z,9.80
2023-04-01T18:39:06.314Z,9.70
2023-04-01T18:42:00.510Z,9.70
2023-04-01T18:44:54.498Z,9.70
2023-04-01T18:47:36.240Z,9.70
2023-04-01T18:50:25.746Z,9.70
2023-04-01T18:53:16.914Z,9.70
2023-04-01T18:55:48.517Z,9.70
2023-04-01T18:58:48.787Z,9.70
2023-04-01T19:01:23.719Z,9.70
2023-04-01T19:04:15.389Z,9.70
2023-04-01T19:06:48.785Z,9.70
2023-04-01T19:09:49.622Z,9.70
2023-04-01T19:12:43.406Z,9.70
2023-04-01T19:15:31.680Z,9.70
2023-04-01T19:18:09.738Z,9.70
2023-04-01T19:20:46.380Z,9.70
2023-04-01T19:23:44.195Z,9.70
2023-04-01T19:26:35.599Z,9.70
2023-04-01T19:29:36.710Z,9.60
2023-04-01T19:32:12.043Z,9.60
2023-04-01T19:34:47.004Z,9.60
2023-04-01T19:37:51.356Z,9.60
2023-04-01T19:40:52.735Z,9.60
2023-04-01T19:43:28.836Z,9.60
2023-04-01T19:46:37.281Z,9.60
2023-04-01T19:49:34.694Z,9.60
2023-04-01T19:52:24.956Z,9.60
2023-04-01T19:55:02.337Z,9.50
2023-04-01T19:57:55.501Z,9.50
2023-04-01T20:00:25.890Z,9.50
2023-04-01T20:03:24.518Z,9.50
2023-04-01T20:06:03.841Z,9.50
2023-04-01T20:08:53.686Z,9.50
2023-04-01T20:11:46.144Z,9.50
2023-04-01T20:14:33.707Z,9.50
2023-04-01T20:17:19.715Z,9.50
2023-04-01T20:19:57.251Z,9.50
2023-04-01T20:22:46.285Z,9.40
2023-04-01T20:25:17.128Z,9.50
2023-04-01T20:27:53.179Z,9.40
2023-04-01T20:30:55.929Z,9.40
2023-04-01T20:33:59.994Z,9.40
2023-04-01T20:36:27.684Z,9.30
2023-04-01T20:39:06.703Z,9.30
2023-04-01T20:42:01.076Z,9.30
2023-04-01T20:44:47.691Z,9.20
2023-04-01T20:47:51.617Z,9.20
2023-04-01T20:50:24.347Z,9.10
2023-04-01T20:53:03.664Z,9.00
2023-04-01T20:55:48.827Z,9.00
2023-04-01T20:58:37.388Z,8.90
2023-04-01T21:01:28.405Z,8.90
2023-04-01T21:04:13.776Z,8.80
2023-04-01T21:06:48.648Z,8.80
2023-04-01T21:09:42.614Z,8.70
2023-04-01T21:12:50.578Z,8.70
2023-04-01T21:15:35.595Z,8.60
2023-04-01T21:18:11.604Z,8.60
2023-04-01T21:20:45.031Z,8.60
2023-04-01T21:23:17.661Z,8.60
2023-04-01T21:25:53.466Z,8.50
2023-04-01T21:28:38.328Z,8.40
2023-04-01T21:31:35.992Z,8.40
2023-04-01T21:34:17.958Z,8.30
2023-04-01T21:36:54.987Z,8.30
2023-04-01T21:39:48.005Z,8.20
2023-04-01T21:42:23.522Z,8.20
2023-04-01T21:45:11.908Z,8.20
2023-04-01T21:47:59.686Z,8.10
2023-04-01T21:50:38.405Z,8.10
2023-04-01T21:53:41.114Z,8.10
2023-04-01T21:56:27.976Z,8.00
2023-04-01T21:59:18.757Z,8.00
2023-04-01T22:02:00.748Z,8.00
2023-04-01T22:04:47.149Z,8.00
2023-04-01T22:07:24.295Z,7.90
2023-04-01T22:10:11.822Z,7.90
2023-04-01T22:12:41.609Z,7.90
2023-04-01T22:15:33.197Z,8.00
2023-04-01T22:18:10.411Z,7.80
2023-04-01T22:20:58.124Z,7.80
2023-04-01T22:23:37.132Z,7.80
2023-04-01T22:26:27.832Z,7.80
2023-04-01T22:29:16.712Z,7.80
2023-04-01T22:32:00.401Z,7.80
2023-04-01T22:34:46.256Z,7.70
2023-04-01T22:37:16.219Z,7.70
2023-04-01T22:40:10.432Z,7.70
2023-04-01T22:42:45.082Z,7.60
2023-04-01T22:45:35.651Z,7.60
2023-04-01T22:48:22.272Z,7.60
2023-04-01T22:50:54.073Z,7.60
2023-04-01T22:53:42.577Z,7.50
2023-04-01T22:56:23.559Z,7.50
2023-04-01T22:59:28.041Z,7.50
2023-04-01T23:02:03.305Z,7.50
2023-04-01T23:04:38.540Z,7.40
2023-04-01T23:07:37.931Z,7.30
2023-04-01T23:10:13.007Z,7.40
2023-04-01T23:12:41.147Z,7.30
2023-04-01T23:15:14.806Z,7.30
2023-04-01T23:18:21.369Z,7.30
2023-04-01T23:21:23.216Z,7.20
2023-04-01T23:24:01.859Z,7.20
2023-04-01T23:26:40.635Z,7.20
2023-04-01T23:29:15.895Z,7.10
2023-04-01T23:31:45.688Z,7.10
2023-04-01T23:34:12.524Z,7.10
2023-04-01T23:36:41.535Z,7.10
2023-04-01T23:39:30.183Z,7.10
2023-04-01T23:42:03.177Z,7.00
2023-04-01T23:44:31.526Z,7.00
2023-04-01T23:46:59.861Z,7.00
2023-04-01T23:49:31.952Z,6.90
2023-04-01T23:52:10.242Z,6.90
2023-04-01T23:54:54.802Z,6.90
2023-04-01T23:57:40.381Z,6.90
